sensor_id;sensor_type;location;lat;lon;timestamp;P1;durP1;ratioP1;P2;durP2;ratioP2
20287;SDS011;10303;51.960;8.372;2022-12-07T00:01:26;22.27;;;12.33;;
20287;SDS011;10303;51.960;8.372;2022-12-07T00:03:56;17.03;;;10.50;;
20287;SDS011;10303;51.960;8.372;2022-12-07T00:06:31;18.90;;;11.50;;
20287;SDS011;10303;51.960;8.372;2022-12-07T00:09:04;22.20;;;12.17;;
20287;SDS011;10303;51.960;8.372;2022-12-07T00:11:32;21.47;;;11.80;;
20287;SDS011;10303;51.960;8.372;2022-12-07T00:13:59;17.37;;;9.77;;
20287;SDS011;10303;51.960;8.372;2022-12-07T00:16:33;18.33;;;11.40;;
20287;SDS011;10303;51.960;8.372;2022-12-07T00:19:00;24.03;;;11.80;;
20287;SDS011;10303;51.960;8.372;2022-12-07T00:21:27;17.87;;;11.53;;
20287;SDS011;10303;51.960;8.372;2022-12-07T00:23:58;19.30;;;11.90;;
20287;SDS011;10303;51.960;8.372;2022-12-07T00:26:29;21.33;;;12.20;;
20287;SDS011;10303;51.960;8.372;2022-12-07T00:29:11;22.50;;;11.90;;
20287;SDS011;10303;51.960;8.372;2022-12-07T00:31:46;17.40;;;11.20;;
20287;SDS011;10303;51.960;8.372;2022-12-07T00:34:14;16.83;;;11.03;;
20287;SDS011;10303;51.960;8.372;2022-12-07T00:36:46;20.30;;;11.60;;
20287;SDS011;10303;51.960;8.372;2022-12-07T00:39:12;18.27;;;10.87;;
20287;SDS011;10303;51.960;8.372;2022-12-07T00:41:38;16.90;;;10.20;;
20287;SDS011;10303;51.960;8.372;2022-12-07T00:44:04;17.03;;;9.67;;
20287;SDS011;10303;51.960;8.372;2022-12-07T00:46:31;20.83;;;10.03;;
20287;SDS011;10303;51.960;8.372;2022-12-07T00:48:57;15.27;;;10.20;;
20287;SDS011;10303;51.960;8.372;2022-12-07T00:51:23;17.63;;;10.90;;
20287;SDS011;10303;51.960;8.372;2022-12-07T00:53:51;17.40;;;10.63;;
20287;SDS011;10303;51.960;8.372;2022-12-07T00:56:18;15.83;;;9.80;;
20287;SDS011;10303;51.960;8.372;2022-12-07T00:58:57;15.03;;;9.90;;
20287;SDS011;10303;51.960;8.372;2022-12-07T01:01:27;15.60;;;9.80;;
20287;SDS011;10303;51.960;8.372;2022-12-07T01:03:57;14.73;;;10.27;;
20287;SDS011;10303;51.960;8.372;2022-12-07T01:06:26;16.10;;;10.20;;
20287;SDS011;10303;51.960;8.372;2022-12-07T01:08:54;15.00;;;9.97;;
20287;SDS011;10303;51.960;8.372;2022-12-07T01:11:21;18.47;;;9.53;;
20287;SDS011;10303;51.960;8.372;2022-12-07T01:13:53;16.33;;;8.80;;
20287;SDS011;10303;51.960;8.372;2022-12-07T01:16:22;12.63;;;8.23;;
20287;SDS011;10303;51.960;8.372;2022-12-07T01:18:52;15.47;;;9.50;;
20287;SDS011;10303;51.960;8.372;2022-12-07T01:21:25;14.20;;;7.63;;
20287;SDS011;10303;51.960;8.372;2022-12-07T01:23:54;10.20;;;6.97;;
20287;SDS011;10303;51.960;8.372;2022-12-07T01:26:23;12.10;;;8.37;;
20287;SDS011;10303;51.960;8.372;2022-12-07T01:28:51;14.80;;;7.90;;
20287;SDS011;10303;51.960;8.372;2022-12-07T01:31:20;12.53;;;7.27;;
20287;SDS011;10303;51.960;8.372;2022-12-07T01:33:51;11.13;;;7.43;;
20287;SDS011;10303;51.960;8.372;2022-12-07T01:38:48;11.23;;;7.50;;
20287;SDS011;10303;51.960;8.372;2022-12-07T01:41:19;12.87;;;7.73;;
20287;SDS011;10303;51.960;8.372;2022-12-07T01:49:37;20.40;;;8.27;;
20287;SDS011;10303;51.960;8.372;2022-12-07T01:52:20;10.57;;;7.30;;
20287;SDS011;10303;51.960;8.372;2022-12-07T01:54:56;11.03;;;7.57;;
20287;SDS011;10303;51.960;8.372;2022-12-07T01:57:28;11.27;;;7.63;;
20287;SDS011;10303;51.960;8.372;2022-12-07T01:59:59;11.20;;;7.33;;
20287;SDS011;10303;51.960;8.372;2022-12-07T02:02:39;14.50;;;6.53;;
20287;SDS011;10303;51.960;8.372;2022-12-07T02:05:13;9.77;;;7.10;;
20287;SDS011;10303;51.960;8.372;2022-12-07T02:07:41;9.60;;;6.47;;
20287;SDS011;10303;51.960;8.372;2022-12-07T02:10:13;10.27;;;6.60;;
20287;SDS011;10303;51.960;8.372;2022-12-07T02:12:57;7.93;;;5.73;;
20287;SDS011;10303;51.960;8.372;2022-12-07T02:18:22;10.57;;;5.90;;
20287;SDS011;10303;51.960;8.372;2022-12-07T02:35:20;7.83;;;6.00;;
20287;SDS011;10303;51.960;8.372;2022-12-07T02:40:52;9.73;;;4.83;;
20287;SDS011;10303;51.960;8.372;2022-12-07T02:43:26;6.33;;;4.70;;
20287;SDS011;10303;51.960;8.372;2022-12-07T02:46:14;8.10;;;4.63;;
20287;SDS011;10303;51.960;8.372;2022-12-07T02:49:04;7.10;;;4.90;;
20287;SDS011;10303;51.960;8.372;2022-12-07T02:51:32;7.73;;;4.33;;
20287;SDS011;10303;51.960;8.372;2022-12-07T02:53:59;5.53;;;4.20;;
20287;SDS011;10303;51.960;8.372;2022-12-07T03:04:45;5.20;;;4.00;;
20287;SDS011;10303;51.960;8.372;2022-12-07T03:10:43;6.13;;;4.07;;
20287;SDS011;10303;51.960;8.372;2022-12-07T03:13:32;3.83;;;3.50;;
20287;SDS011;10303;51.960;8.372;2022-12-07T03:21:33;5.70;;;3.53;;
20287;SDS011;10303;51.960;8.372;2022-12-07T03:24:12;10.80;;;4.00;;
20287;SDS011;10303;51.960;8.372;2022-12-07T03:26:46;5.53;;;3.33;;
20287;SDS011;10303;51.960;8.372;2022-12-07T03:29:25;6.33;;;4.03;;
20287;SDS011;10303;51.960;8.372;2022-12-07T03:32:07;8.50;;;4.23;;
20287;SDS011;10303;51.960;8.372;2022-12-07T03:35:17;6.20;;;4.03;;
20287;SDS011;10303;51.960;8.372;2022-12-07T03:38:04;6.40;;;3.80;;
20287;SDS011;10303;51.960;8.372;2022-12-07T03:43:40;4.93;;;3.77;;
20287;SDS011;10303;51.960;8.372;2022-12-07T03:46:32;6.67;;;4.40;;
20287;SDS011;10303;51.960;8.372;2022-12-07T03:57:46;7.47;;;3.83;;
20287;SDS011;10303;51.960;8.372;2022-12-07T04:00:16;7.53;;;3.77;;
20287;SDS011;10303;51.960;8.372;2022-12-07T04:02:44;5.00;;;3.53;;
20287;SDS011;10303;51.960;8.372;2022-12-07T04:05:10;6.17;;;4.33;;
20287;SDS011;10303;51.960;8.372;2022-12-07T04:07:37;9.23;;;4.63;;
20287;SDS011;10303;51.960;8.372;2022-12-07T04:10:03;8.47;;;4.93;;
20287;SDS011;10303;51.960;8.372;2022-12-07T04:12:30;5.60;;;3.97;;
20287;SDS011;10303;51.960;8.372;2022-12-07T04:14:56;6.20;;;4.07;;
20287;SDS011;10303;51.960;8.372;2022-12-07T04:17:22;5.40;;;4.03;;
20287;SDS011;10303;51.960;8.372;2022-12-07T04:19:48;6.70;;;4.73;;
20287;SDS011;10303;51.960;8.372;2022-12-07T04:22:14;6.37;;;4.73;;
20287;SDS011;10303;51.960;8.372;2022-12-07T04:24:41;5.60;;;4.43;;
20287;SDS011;10303;51.960;8.372;2022-12-07T04:27:07;4.57;;;3.97;;
20287;SDS011;10303;51.960;8.372;2022-12-07T04:29:33;8.43;;;4.40;;
20287;SDS011;10303;51.960;8.372;2022-12-07T04:31:59;4.97;;;4.27;;
20287;SDS011;10303;51.960;8.372;2022-12-07T04:34:25;7.53;;;3.73;;
20287;SDS011;10303;51.960;8.372;2022-12-07T04:36:51;4.30;;;3.80;;
20287;SDS011;10303;51.960;8.372;2022-12-07T04:39:20;7.83;;;5.00;;
20287;SDS011;10303;51.960;8.372;2022-12-07T04:41:51;9.83;;;4.90;;
20287;SDS011;10303;51.960;8.372;2022-12-07T04:44:18;6.53;;;4.37;;
20287;SDS011;10303;51.960;8.372;2022-12-07T04:46:45;5.97;;;4.20;;
20287;SDS011;10303;51.960;8.372;2022-12-07T04:49:12;8.47;;;4.67;;
20287;SDS011;10303;51.960;8.372;2022-12-07T04:51:39;6.50;;;4.33;;
20287;SDS011;10303;51.960;8.372;2022-12-07T04:54:07;6.67;;;4.27;;
20287;SDS011;10303;51.960;8.372;2022-12-07T04:56:33;8.13;;;4.30;;
20287;SDS011;10303;51.960;8.372;2022-12-07T04:59:00;7.57;;;4.70;;
20287;SDS011;10303;51.960;8.372;2022-12-07T05:01:28;10.03;;;4.53;;
20287;SDS011;10303;51.960;8.372;2022-12-07T05:03:55;7.53;;;4.43;;
20287;SDS011;10303;51.960;8.372;2022-12-07T05:06:21;8.33;;;4.53;;
20287;SDS011;10303;51.960;8.372;2022-12-07T05:08:47;9.17;;;4.67;;
20287;SDS011;10303;51.960;8.372;2022-12-07T05:11:13;6.40;;;4.40;;
20287;SDS011;10303;51.960;8.372;2022-12-07T05:14:01;8.60;;;4.50;;
20287;SDS011;10303;51.960;8.372;2022-12-07T05:16:29;7.13;;;4.30;;
20287;SDS011;10303;51.960;8.372;2022-12-07T05:18:55;7.67;;;4.77;;
20287;SDS011;10303;51.960;8.372;2022-12-07T05:21:22;8.53;;;4.37;;
20287;SDS011;10303;51.960;8.372;2022-12-07T05:23:48;8.60;;;4.60;;
20287;SDS011;10303;51.960;8.372;2022-12-07T05:26:14;5.60;;;4.27;;
20287;SDS011;10303;51.960;8.372;2022-12-07T05:28:43;5.83;;;4.47;;
20287;SDS011;10303;51.960;8.372;2022-12-07T05:31:09;4.63;;;4.10;;
20287;SDS011;10303;51.960;8.372;2022-12-07T05:33:35;9.47;;;5.57;;
20287;SDS011;10303;51.960;8.372;2022-12-07T05:36:01;9.30;;;5.20;;
20287;SDS011;10303;51.960;8.372;2022-12-07T05:38:33;4.40;;;3.97;;
20287;SDS011;10303;51.960;8.372;2022-12-07T05:41:00;5.97;;;3.60;;
20287;SDS011;10303;51.960;8.372;2022-12-07T05:43:32;6.50;;;4.63;;
20287;SDS011;10303;51.960;8.372;2022-12-07T05:45:58;6.13;;;4.33;;
20287;SDS011;10303;51.960;8.372;2022-12-07T05:48:26;5.50;;;3.97;;
20287;SDS011;10303;51.960;8.372;2022-12-07T05:50:52;12.53;;;4.47;;
20287;SDS011;10303;51.960;8.372;2022-12-07T05:53:18;9.23;;;3.87;;
20287;SDS011;10303;51.960;8.372;2022-12-07T05:55:44;4.77;;;3.70;;
20287;SDS011;10303;51.960;8.372;2022-12-07T05:58:10;6.87;;;3.83;;
20287;SDS011;10303;51.960;8.372;2022-12-07T06:00:55;6.67;;;4.37;;
20287;SDS011;10303;51.960;8.372;2022-12-07T06:03:22;5.50;;;3.90;;
20287;SDS011;10303;51.960;8.372;2022-12-07T06:05:51;7.97;;;3.93;;
20287;SDS011;10303;51.960;8.372;2022-12-07T06:08:18;5.40;;;4.20;;
20287;SDS011;10303;51.960;8.372;2022-12-07T06:10:44;5.00;;;3.77;;
20287;SDS011;10303;51.960;8.372;2022-12-07T06:13:32;4.73;;;3.57;;
20287;SDS011;10303;51.960;8.372;2022-12-07T06:15:58;4.67;;;3.47;;
20287;SDS011;10303;51.960;8.372;2022-12-07T06:18:24;8.73;;;4.33;;
20287;SDS011;10303;51.960;8.372;2022-12-07T06:20:50;6.03;;;3.43;;
20287;SDS011;10303;51.960;8.372;2022-12-07T06:23:16;6.07;;;4.27;;
20287;SDS011;10303;51.960;8.372;2022-12-07T06:25:45;4.43;;;3.60;;
20287;SDS011;10303;51.960;8.372;2022-12-07T06:28:11;20.03;;;4.23;;
20287;SDS011;10303;51.960;8.372;2022-12-07T06:30:37;6.47;;;3.50;;
20287;SDS011;10303;51.960;8.372;2022-12-07T06:33:03;6.40;;;2.60;;
20287;SDS011;10303;51.960;8.372;2022-12-07T06:35:29;9.47;;;3.87;;
20287;SDS011;10303;51.960;8.372;2022-12-07T06:37:57;5.77;;;3.33;;
20287;SDS011;10303;51.960;8.372;2022-12-07T06:40:23;8.83;;;4.47;;
20287;SDS011;10303;51.960;8.372;2022-12-07T06:42:49;6.17;;;3.53;;
20287;SDS011;10303;51.960;8.372;2022-12-07T06:45:15;6.47;;;3.97;;
20287;SDS011;10303;51.960;8.372;2022-12-07T06:47:41;7.13;;;3.60;;
20287;SDS011;10303;51.960;8.372;2022-12-07T06:50:07;7.77;;;4.17;;
20287;SDS011;10303;51.960;8.372;2022-12-07T06:52:33;6.90;;;3.67;;
20287;SDS011;10303;51.960;8.372;2022-12-07T06:54:59;6.67;;;3.57;;
20287;SDS011;10303;51.960;8.372;2022-12-07T06:57:25;7.13;;;2.73;;
20287;SDS011;10303;51.960;8.372;2022-12-07T06:59:52;4.47;;;2.93;;
20287;SDS011;10303;51.960;8.372;2022-12-07T07:02:17;6.57;;;3.60;;
20287;SDS011;10303;51.960;8.372;2022-12-07T07:04:43;7.23;;;3.40;;
20287;SDS011;10303;51.960;8.372;2022-12-07T07:07:11;3.97;;;3.07;;
20287;SDS011;10303;51.960;8.372;2022-12-07T07:09:37;6.80;;;3.97;;
20287;SDS011;10303;51.960;8.372;2022-12-07T07:12:03;3.83;;;2.83;;
20287;SDS011;10303;51.960;8.372;2022-12-07T07:14:29;6.97;;;3.47;;
20287;SDS011;10303;51.960;8.372;2022-12-07T07:16:55;3.50;;;2.73;;
20287;SDS011;10303;51.960;8.372;2022-12-07T07:19:21;4.60;;;2.40;;
20287;SDS011;10303;51.960;8.372;2022-12-07T07:21:47;5.47;;;2.63;;
20287;SDS011;10303;51.960;8.372;2022-12-07T07:24:13;5.53;;;3.23;;
20287;SDS011;10303;51.960;8.372;2022-12-07T07:26:39;5.40;;;3.10;;
20287;SDS011;10303;51.960;8.372;2022-12-07T07:29:05;5.07;;;3.10;;
20287;SDS011;10303;51.960;8.372;2022-12-07T07:31:31;4.27;;;2.33;;
20287;SDS011;10303;51.960;8.372;2022-12-07T07:33:57;5.93;;;3.00;;
20287;SDS011;10303;51.960;8.372;2022-12-07T07:36:22;6.53;;;3.90;;
20287;SDS011;10303;51.960;8.372;2022-12-07T07:38:48;3.57;;;2.67;;
20287;SDS011;10303;51.960;8.372;2022-12-07T07:41:14;4.90;;;2.37;;
20287;SDS011;10303;51.960;8.372;2022-12-07T07:43:40;6.43;;;3.17;;
20287;SDS011;10303;51.960;8.372;2022-12-07T07:46:06;4.27;;;2.93;;
20287;SDS011;10303;51.960;8.372;2022-12-07T07:48:32;3.53;;;3.23;;
20287;SDS011;10303;51.960;8.372;2022-12-07T07:50:58;2.40;;;2.20;;
20287;SDS011;10303;51.960;8.372;2022-12-07T07:53:24;2.27;;;1.80;;
20287;SDS011;10303;51.960;8.372;2022-12-07T07:55:51;4.60;;;3.47;;
20287;SDS011;10303;51.960;8.372;2022-12-07T07:58:18;3.70;;;2.70;;
20287;SDS011;10303;51.960;8.372;2022-12-07T08:00:45;5.10;;;2.53;;
20287;SDS011;10303;51.960;8.372;2022-12-07T08:03:11;2.77;;;2.07;;
20287;SDS011;10303;51.960;8.372;2022-12-07T08:05:37;3.50;;;2.73;;
20287;SDS011;10303;51.960;8.372;2022-12-07T08:08:03;3.00;;;2.53;;
20287;SDS011;10303;51.960;8.372;2022-12-07T08:10:29;5.57;;;2.43;;
20287;SDS011;10303;51.960;8.372;2022-12-07T08:12:57;4.43;;;2.23;;
20287;SDS011;10303;51.960;8.372;2022-12-07T08:15:36;3.13;;;2.17;;
20287;SDS011;10303;51.960;8.372;2022-12-07T08:18:04;3.30;;;2.07;;
20287;SDS011;10303;51.960;8.372;2022-12-07T08:20:31;1.80;;;1.50;;
20287;SDS011;10303;51.960;8.372;2022-12-07T08:22:59;4.27;;;2.73;;
20287;SDS011;10303;51.960;8.372;2022-12-07T08:25:27;4.97;;;2.27;;
20287;SDS011;10303;51.960;8.372;2022-12-07T08:27:53;4.10;;;2.87;;
20287;SDS011;10303;51.960;8.372;2022-12-07T08:30:20;4.30;;;2.97;;
20287;SDS011;10303;51.960;8.372;2022-12-07T08:32:47;3.63;;;3.07;;
20287;SDS011;10303;51.960;8.372;2022-12-07T08:35:13;4.57;;;3.00;;
20287;SDS011;10303;51.960;8.372;2022-12-07T08:37:40;7.57;;;3.47;;
20287;SDS011;10303;51.960;8.372;2022-12-07T08:40:07;3.77;;;2.40;;
20287;SDS011;10303;51.960;8.372;2022-12-07T08:42:36;2.43;;;2.17;;
20287;SDS011;10303;51.960;8.372;2022-12-07T08:45:09;2.83;;;2.10;;
20287;SDS011;10303;51.960;8.372;2022-12-07T08:47:39;3.73;;;2.00;;
20287;SDS011;10303;51.960;8.372;2022-12-07T08:50:20;5.13;;;2.40;;
20287;SDS011;10303;51.960;8.372;2022-12-07T08:52:54;3.07;;;2.27;;
20287;SDS011;10303;51.960;8.372;2022-12-07T08:55:23;4.00;;;2.40;;
20287;SDS011;10303;51.960;8.372;2022-12-07T08:57:49;5.17;;;3.10;;
20287;SDS011;10303;51.960;8.372;2022-12-07T09:00:16;3.97;;;2.73;;
20287;SDS011;10303;51.960;8.372;2022-12-07T09:02:43;6.60;;;2.40;;
20287;SDS011;10303;51.960;8.372;2022-12-07T09:05:10;6.83;;;2.43;;
20287;SDS011;10303;51.960;8.372;2022-12-07T09:07:37;4.83;;;2.13;;
20287;SDS011;10303;51.960;8.372;2022-12-07T09:10:04;9.27;;;2.23;;
20287;SDS011;10303;51.960;8.372;2022-12-07T09:12:31;7.80;;;2.80;;
20287;SDS011;10303;51.960;8.372;2022-12-07T09:14:57;4.67;;;2.60;;
20287;SDS011;10303;51.960;8.372;2022-12-07T09:17:23;2.30;;;2.10;;
20287;SDS011;10303;51.960;8.372;2022-12-07T09:19:49;3.40;;;2.37;;
20287;SDS011;10303;51.960;8.372;2022-12-07T09:22:15;5.73;;;2.57;;
20287;SDS011;10303;51.960;8.372;2022-12-07T09:24:41;7.80;;;2.70;;
20287;SDS011;10303;51.960;8.372;2022-12-07T09:27:08;3.77;;;2.10;;
20287;SDS011;10303;51.960;8.372;2022-12-07T09:29:34;5.03;;;2.50;;
20287;SDS011;10303;51.960;8.372;2022-12-07T09:32:00;4.33;;;2.67;;
20287;SDS011;10303;51.960;8.372;2022-12-07T09:34:26;6.73;;;2.50;;
20287;SDS011;10303;51.960;8.372;2022-12-07T09:36:52;5.67;;;2.30;;
20287;SDS011;10303;51.960;8.372;2022-12-07T09:39:18;4.27;;;2.67;;
20287;SDS011;10303;51.960;8.372;2022-12-07T09:41:44;4.53;;;2.30;;
20287;SDS011;10303;51.960;8.372;2022-12-07T09:44:12;6.53;;;1.70;;
20287;SDS011;10303;51.960;8.372;2022-12-07T09:46:45;3.77;;;2.07;;
20287;SDS011;10303;51.960;8.372;2022-12-07T09:49:12;4.47;;;2.30;;
20287;SDS011;10303;51.960;8.372;2022-12-07T09:51:44;2.93;;;1.80;;
20287;SDS011;10303;51.960;8.372;2022-12-07T09:54:12;6.67;;;2.23;;
20287;SDS011;10303;51.960;8.372;2022-12-07T09:56:42;2.33;;;1.80;;
20287;SDS011;10303;51.960;8.372;2022-12-07T09:59:12;5.57;;;2.63;;
20287;SDS011;10303;51.960;8.372;2022-12-07T10:01:46;5.37;;;1.77;;
20287;SDS011;10303;51.960;8.372;2022-12-07T10:06:46;4.47;;;2.00;;
20287;SDS011;10303;51.960;8.372;2022-12-07T10:09:16;4.83;;;2.20;;
20287;SDS011;10303;51.960;8.372;2022-12-07T10:11:58;8.37;;;1.57;;
20287;SDS011;10303;51.960;8.372;2022-12-07T10:14:40;5.40;;;2.03;;
20287;SDS011;10303;51.960;8.372;2022-12-07T10:20:25;1.60;;;1.33;;
20287;SDS011;10303;51.960;8.372;2022-12-07T10:22:56;4.87;;;1.63;;
20287;SDS011;10303;51.960;8.372;2022-12-07T10:25:38;4.63;;;1.83;;
20287;SDS011;10303;51.960;8.372;2022-12-07T10:28:16;4.67;;;2.07;;
20287;SDS011;10303;51.960;8.372;2022-12-07T10:30:59;4.97;;;1.63;;
20287;SDS011;10303;51.960;8.372;2022-12-07T10:33:52;1.73;;;1.63;;
20287;SDS011;10303;51.960;8.372;2022-12-07T10:36:36;6.43;;;1.60;;
20287;SDS011;10303;51.960;8.372;2022-12-07T10:44:33;7.40;;;1.63;;
20287;SDS011;10303;51.960;8.372;2022-12-07T10:56:04;4.53;;;1.10;;
20287;SDS011;10303;51.960;8.372;2022-12-07T11:04:24;6.07;;;1.17;;
20287;SDS011;10303;51.960;8.372;2022-12-07T11:10:18;7.93;;;1.90;;
20287;SDS011;10303;51.960;8.372;2022-12-07T11:13:13;4.57;;;1.40;;
20287;SDS011;10303;51.960;8.372;2022-12-07T11:24:35;4.27;;;1.90;;
20287;SDS011;10303;51.960;8.372;2022-12-07T11:27:23;1.63;;;1.20;;
20287;SDS011;10303;51.960;8.372;2022-12-07T11:30:23;3.43;;;1.30;;
20287;SDS011;10303;51.960;8.372;2022-12-07T11:38:52;6.13;;;1.20;;
20287;SDS011;10303;51.960;8.372;2022-12-07T11:41:24;4.30;;;1.30;;
20287;SDS011;10303;51.960;8.372;2022-12-07T11:44:04;7.90;;;0.83;;
20287;SDS011;10303;51.960;8.372;2022-12-07T11:53:14;7.63;;;1.20;;
20287;SDS011;10303;51.960;8.372;2022-12-07T12:06:39;5.83;;;1.70;;
20287;SDS011;10303;51.960;8.372;2022-12-07T12:09:13;1.93;;;0.97;;
20287;SDS011;10303;51.960;8.372;2022-12-07T12:14:46;7.43;;;1.43;;
20287;SDS011;10303;51.960;8.372;2022-12-07T12:20:40;2.50;;;1.37;;
20287;SDS011;10303;51.960;8.372;2022-12-07T12:26:20;4.23;;;1.23;;
20287;SDS011;10303;51.960;8.372;2022-12-07T12:28:54;1.30;;;0.60;;
20287;SDS011;10303;51.960;8.372;2022-12-07T12:34:01;3.03;;;1.07;;
20287;SDS011;10303;51.960;8.372;2022-12-07T12:36:49;2.87;;;0.80;;
20287;SDS011;10303;51.960;8.372;2022-12-07T12:39:16;4.13;;;1.60;;
20287;SDS011;10303;51.960;8.372;2022-12-07T12:49:42;0.90;;;0.73;;
20287;SDS011;10303;51.960;8.372;2022-12-07T12:57:35;5.17;;;1.10;;
20287;SDS011;10303;51.960;8.372;2022-12-07T13:00:23;1.90;;;0.70;;
20287;SDS011;10303;51.960;8.372;2022-12-07T13:02:53;2.30;;;0.93;;
20287;SDS011;10303;51.960;8.372;2022-12-07T13:05:22;3.20;;;1.30;;
20287;SDS011;10303;51.960;8.372;2022-12-07T13:08:02;4.47;;;1.00;;
20287;SDS011;10303;51.960;8.372;2022-12-07T13:10:46;6.03;;;1.13;;
20287;SDS011;10303;51.960;8.372;2022-12-07T13:15:48;3.53;;;1.27;;
20287;SDS011;10303;51.960;8.372;2022-12-07T13:18:41;4.17;;;0.70;;
20287;SDS011;10303;51.960;8.372;2022-12-07T13:26:18;3.73;;;0.77;;
20287;SDS011;10303;51.960;8.372;2022-12-07T13:31:55;7.70;;;1.10;;
20287;SDS011;10303;51.960;8.372;2022-12-07T13:34:31;0.93;;;0.60;;
20287;SDS011;10303;51.960;8.372;2022-12-07T13:37:12;4.30;;;0.77;;
20287;SDS011;10303;51.960;8.372;2022-12-07T13:39:57;2.83;;;0.77;;
20287;SDS011;10303;51.960;8.372;2022-12-07T13:42:27;2.97;;;0.90;;
20287;SDS011;10303;51.960;8.372;2022-12-07T13:48:14;2.33;;;1.10;;
20287;SDS011;10303;51.960;8.372;2022-12-07T13:50:41;3.60;;;0.50;;
20287;SDS011;10303;51.960;8.372;2022-12-07T13:53:11;1.03;;;0.73;;
20287;SDS011;10303;51.960;8.372;2022-12-07T13:55:44;1.73;;;0.80;;
20287;SDS011;10303;51.960;8.372;2022-12-07T13:58:11;5.67;;;1.03;;
20287;SDS011;10303;51.960;8.372;2022-12-07T14:00:39;2.20;;;0.80;;
20287;SDS011;10303;51.960;8.372;2022-12-07T14:05:40;1.53;;;0.80;;
20287;SDS011;10303;51.960;8.372;2022-12-07T14:14:10;3.50;;;1.40;;
20287;SDS011;10303;51.960;8.372;2022-12-07T14:18:51;2.70;;;0.80;;
20287;SDS011;10303;51.960;8.372;2022-12-07T14:21:18;1.93;;;0.90;;
20287;SDS011;10303;51.960;8.372;2022-12-07T14:26:37;0.50;;;0.50;;
20287;SDS011;10303;51.960;8.372;2022-12-07T14:29:21;1.20;;;0.83;;
20287;SDS011;10303;51.960;8.372;2022-12-07T14:31:51;1.27;;;0.90;;
20287;SDS011;10303;51.960;8.372;2022-12-07T14:34:22;4.20;;;0.90;;
20287;SDS011;10303;51.960;8.372;2022-12-07T14:36:49;2.63;;;0.80;;
20287;SDS011;10303;51.960;8.372;2022-12-07T14:39:16;1.63;;;0.90;;
20287;SDS011;10303;51.960;8.372;2022-12-07T14:41:42;1.60;;;0.70;;
20287;SDS011;10303;51.960;8.372;2022-12-07T14:44:21;4.00;;;1.40;;
20287;SDS011;10303;51.960;8.372;2022-12-07T14:46:51;3.07;;;0.60;;
20287;SDS011;10303;51.960;8.372;2022-12-07T14:49:18;4.50;;;1.03;;
20287;SDS011;10303;51.960;8.372;2022-12-07T14:51:45;2.90;;;1.00;;
20287;SDS011;10303;51.960;8.372;2022-12-07T14:54:17;7.17;;;0.70;;
20287;SDS011;10303;51.960;8.372;2022-12-07T14:56:45;1.07;;;0.60;;
20287;SDS011;10303;51.960;8.372;2022-12-07T14:59:17;6.67;;;0.87;;
20287;SDS011;10303;51.960;8.372;2022-12-07T15:01:44;5.90;;;1.20;;
20287;SDS011;10303;51.960;8.372;2022-12-07T15:04:10;1.27;;;0.83;;
20287;SDS011;10303;51.960;8.372;2022-12-07T15:06:36;4.20;;;1.10;;
20287;SDS011;10303;51.960;8.372;2022-12-07T15:09:02;2.67;;;0.93;;
20287;SDS011;10303;51.960;8.372;2022-12-07T15:11:29;2.50;;;1.03;;
20287;SDS011;10303;51.960;8.372;2022-12-07T15:13:55;3.53;;;0.73;;
20287;SDS011;10303;51.960;8.372;2022-12-07T15:16:34;0.80;;;0.60;;
20287;SDS011;10303;51.960;8.372;2022-12-07T15:19:02;2.47;;;1.00;;
20287;SDS011;10303;51.960;8.372;2022-12-07T15:21:28;3.90;;;1.10;;
20287;SDS011;10303;51.960;8.372;2022-12-07T15:23:54;0.90;;;0.90;;
20287;SDS011;10303;51.960;8.372;2022-12-07T15:26:20;4.77;;;1.10;;
20287;SDS011;10303;51.960;8.372;2022-12-07T15:28:46;1.47;;;0.90;;
20287;SDS011;10303;51.960;8.372;2022-12-07T15:31:13;1.83;;;1.20;;
20287;SDS011;10303;51.960;8.372;2022-12-07T15:33:41;3.00;;;1.53;;
20287;SDS011;10303;51.960;8.372;2022-12-07T15:36:07;1.10;;;0.90;;
20287;SDS011;10303;51.960;8.372;2022-12-07T15:38:45;3.73;;;1.10;;
20287;SDS011;10303;51.960;8.372;2022-12-07T15:41:11;2.47;;;1.43;;
20287;SDS011;10303;51.960;8.372;2022-12-07T15:43:37;2.50;;;1.50;;
20287;SDS011;10303;51.960;8.372;2022-12-07T15:46:39;1.57;;;1.20;;
20287;SDS011;10303;51.960;8.372;2022-12-07T15:49:17;6.97;;;1.67;;
20287;SDS011;10303;51.960;8.372;2022-12-07T15:51:44;2.43;;;1.07;;
20287;SDS011;10303;51.960;8.372;2022-12-07T15:56:52;0.57;;;0.57;;
20287;SDS011;10303;51.960;8.372;2022-12-07T15:59:19;1.17;;;1.07;;
20287;SDS011;10303;51.960;8.372;2022-12-07T16:01:45;5.67;;;1.10;;
20287;SDS011;10303;51.960;8.372;2022-12-07T16:04:12;8.30;;;0.93;;
20287;SDS011;10303;51.960;8.372;2022-12-07T16:06:39;2.97;;;1.00;;
20287;SDS011;10303;51.960;8.372;2022-12-07T16:09:05;1.30;;;0.70;;
20287;SDS011;10303;51.960;8.372;2022-12-07T16:11:31;1.73;;;0.80;;
20287;SDS011;10303;51.960;8.372;2022-12-07T16:13:58;2.00;;;1.13;;
20287;SDS011;10303;51.960;8.372;2022-12-07T16:16:24;6.83;;;1.33;;
20287;SDS011;10303;51.960;8.372;2022-12-07T16:18:51;1.17;;;1.10;;
20287;SDS011;10303;51.960;8.372;2022-12-07T16:21:17;4.03;;;1.10;;
20287;SDS011;10303;51.960;8.372;2022-12-07T16:23:43;1.60;;;0.70;;
20287;SDS011;10303;51.960;8.372;2022-12-07T16:26:15;7.00;;;1.00;;
20287;SDS011;10303;51.960;8.372;2022-12-07T16:28:44;3.60;;;1.43;;
20287;SDS011;10303;51.960;8.372;2022-12-07T16:31:14;2.07;;;1.17;;
20287;SDS011;10303;51.960;8.372;2022-12-07T16:33:43;4.20;;;1.30;;
20287;SDS011;10303;51.960;8.372;2022-12-07T16:36:11;1.30;;;0.70;;
20287;SDS011;10303;51.960;8.372;2022-12-07T16:38:41;5.33;;;1.27;;
20287;SDS011;10303;51.960;8.372;2022-12-07T16:41:08;1.07;;;0.87;;
20287;SDS011;10303;51.960;8.372;2022-12-07T16:43:35;8.03;;;1.53;;
20287;SDS011;10303;51.960;8.372;2022-12-07T16:46:03;7.70;;;1.27;;
20287;SDS011;10303;51.960;8.372;2022-12-07T16:48:30;3.20;;;1.13;;
20287;SDS011;10303;51.960;8.372;2022-12-07T16:51:02;1.23;;;1.10;;
20287;SDS011;10303;51.960;8.372;2022-12-07T16:53:33;3.53;;;1.10;;
20287;SDS011;10303;51.960;8.372;2022-12-07T16:56:02;1.03;;;0.90;;
20287;SDS011;10303;51.960;8.372;2022-12-07T16:58:28;0.77;;;0.77;;
20287;SDS011;10303;51.960;8.372;2022-12-07T17:00:55;2.97;;;0.90;;
20287;SDS011;10303;51.960;8.372;2022-12-07T17:03:21;7.53;;;1.40;;
20287;SDS011;10303;51.960;8.372;2022-12-07T17:05:48;2.60;;;1.10;;
20287;SDS011;10303;51.960;8.372;2022-12-07T17:08:14;1.53;;;1.10;;
20287;SDS011;10303;51.960;8.372;2022-12-07T17:10:41;1.37;;;0.67;;
20287;SDS011;10303;51.960;8.372;2022-12-07T17:13:10;0.87;;;0.80;;
20287;SDS011;10303;51.960;8.372;2022-12-07T17:15:56;1.53;;;0.90;;
20287;SDS011;10303;51.960;8.372;2022-12-07T17:18:29;1.07;;;0.67;;
20287;SDS011;10303;51.960;8.372;2022-12-07T17:21:05;0.83;;;0.77;;
20287;SDS011;10303;51.960;8.372;2022-12-07T17:23:34;0.40;;;0.40;;
20287;SDS011;10303;51.960;8.372;2022-12-07T17:26:05;0.90;;;0.70;;
20287;SDS011;10303;51.960;8.372;2022-12-07T17:28:40;6.00;;;1.50;;
20287;SDS011;10303;51.960;8.372;2022-12-07T17:31:08;1.50;;;1.30;;
20287;SDS011;10303;51.960;8.372;2022-12-07T17:33:39;0.97;;;0.87;;
20287;SDS011;10303;51.960;8.372;2022-12-07T17:36:09;3.07;;;1.00;;
20287;SDS011;10303;51.960;8.372;2022-12-07T17:38:41;5.20;;;2.03;;
20287;SDS011;10303;51.960;8.372;2022-12-07T17:41:08;1.30;;;1.03;;
20287;SDS011;10303;51.960;8.372;2022-12-07T17:43:36;1.43;;;1.20;;
20287;SDS011;10303;51.960;8.372;2022-12-07T17:46:07;2.73;;;0.80;;
20287;SDS011;10303;51.960;8.372;2022-12-07T17:48:34;3.57;;;1.00;;
20287;SDS011;10303;51.960;8.372;2022-12-07T17:51:01;1.23;;;1.00;;
20287;SDS011;10303;51.960;8.372;2022-12-07T17:53:49;3.20;;;1.37;;
20287;SDS011;10303;51.960;8.372;2022-12-07T17:56:16;3.10;;;1.00;;
20287;SDS011;10303;51.960;8.372;2022-12-07T17:58:42;0.60;;;0.57;;